createdAt,value
2019-04-27T00:02:36.879Z,11.00
2019-04-27T00:05:40.599Z,9.95
2019-04-27T00:08:46.320Z,10.70
2019-04-27T00:11:23.692Z,11.88
2019-04-27T00:13:55.746Z,10.95
2019-04-27T00:16:50.529Z,9.85
2019-04-27T00:19:37.268Z,10.43
2019-04-27T00:22:27.563Z,11.10
2019-04-27T00:24:59.409Z,10.58
2019-04-27T00:27:33.528Z,12.45
2019-04-27T00:30:06.971Z,12.33
2019-04-27T00:32:39.861Z,12.37
2019-04-27T00:35:16.198Z,12.70
2019-04-27T00:38:16.488Z,12.20
2019-04-27T00:41:04.322Z,12.33
2019-04-27T00:43:36.252Z,12.50
2019-04-27T00:46:08.087Z,12.98
2019-04-27T00:48:40.067Z,11.73
2019-04-27T00:51:14.250Z,13.08
2019-04-27T00:53:45.402Z,12.43
2019-04-27T00:56:37.938Z,14.23
2019-04-27T00:59:33.014Z,12.65
2019-04-27T01:02:23.276Z,12.47
2019-04-27T01:04:55.492Z,12.98
2019-04-27T01:07:27.551Z,11.88
2019-04-27T01:09:59.299Z,12.43
2019-04-27T01:12:31.106Z,12.55
2019-04-27T01:15:03.658Z,12.85
2019-04-27T01:17:35.698Z,12.68
2019-04-27T01:20:08.664Z,14.80
2019-04-27T01:22:40.567Z,13.30
2019-04-27T01:25:12.546Z,12.55
2019-04-27T01:28:09.777Z,12.07
2019-04-27T01:30:58.890Z,11.73
2019-04-27T01:33:31.163Z,12.25
2019-04-27T01:36:02.908Z,12.18
2019-04-27T01:38:34.718Z,12.23
2019-04-27T01:41:06.477Z,11.55
2019-04-27T01:43:38.799Z,10.98
2019-04-27T01:46:10.776Z,11.68
2019-04-27T01:48:42.549Z,11.30
2019-04-27T01:51:14.402Z,11.70
2019-04-27T01:53:46.168Z,11.22
2019-04-27T01:56:19.466Z,11.12
2019-04-27T01:58:51.628Z,11.53
2019-04-27T02:01:40.878Z,10.85
2019-04-27T02:04:29.408Z,10.68
2019-04-27T02:07:02.744Z,11.97
2019-04-27T02:09:34.850Z,11.33
2019-04-27T02:12:09.228Z,10.25
2019-04-27T02:14:40.784Z,10.63
2019-04-27T02:17:12.612Z,11.00
2019-04-27T02:19:44.412Z,10.50
2019-04-27T02:22:16.491Z,10.63
2019-04-27T02:24:49.242Z,10.75
2019-04-27T02:27:23.214Z,11.12
2019-04-27T02:30:20.682Z,10.78
2019-04-27T02:33:20.497Z,10.60
2019-04-27T02:35:52.336Z,10.60
2019-04-27T02:38:24.108Z,10.40
2019-04-27T02:41:00.743Z,10.53
2019-04-27T02:44:06.776Z,10.15
2019-04-27T02:46:39.546Z,10.40
2019-04-27T02:49:11.522Z,10.65
2019-04-27T02:51:49.842Z,10.70
2019-04-27T02:54:21.747Z,10.23
2019-04-27T02:56:53.556Z,10.18
2019-04-27T02:59:25.675Z,10.08
2019-04-27T03:02:06.109Z,11.48
2019-04-27T03:04:39.924Z,10.45
2019-04-27T03:07:11.686Z,10.38
2019-04-27T03:09:43.983Z,10.65
2019-04-27T03:12:19.118Z,10.40
2019-04-27T03:15:10.339Z,9.60
2019-04-27T03:18:01.247Z,10.23
2019-04-27T03:20:42.916Z,8.58
2019-04-27T03:23:15.278Z,9.23
2019-04-27T03:25:55.951Z,10.15
2019-04-27T03:28:29.795Z,9.33
2019-04-27T03:31:02.402Z,9.53
2019-04-27T03:33:34.671Z,10.10
2019-04-27T03:36:06.650Z,9.55
2019-04-27T03:38:39.651Z,9.73
2019-04-27T03:41:11.857Z,9.23
2019-04-27T03:43:43.615Z,9.58
2019-04-27T03:46:15.552Z,10.00
2019-04-27T03:48:49.710Z,9.03
2019-04-27T03:51:40.722Z,8.68
2019-04-27T03:54:24.460Z,9.35
2019-04-27T03:57:02.439Z,9.73
2019-04-27T03:59:52.388Z,9.18
2019-04-27T04:02:24.362Z,8.58
2019-04-27T04:04:56.156Z,9.15
2019-04-27T04:07:29.957Z,9.93
2019-04-27T04:10:02.364Z,8.40
2019-04-27T04:12:56.246Z,9.08
2019-04-27T04:15:39.780Z,8.08
2019-04-27T04:18:12.088Z,8.88
2019-04-27T04:20:44.214Z,6.62
2019-04-27T04:23:16.126Z,7.53
2019-04-27T04:25:49.874Z,7.85
2019-04-27T04:28:21.383Z,7.55
2019-04-27T04:30:53.161Z,7.97
2019-04-27T04:33:25.223Z,7.87
2019-04-27T04:35:59.582Z,6.78
2019-04-27T04:38:30.766Z,9.80
2019-04-27T04:41:06.207Z,6.83
2019-04-27T04:43:56.948Z,8.00
2019-04-27T04:47:05.680Z,7.33
2019-04-27T04:49:39.546Z,6.95
2019-04-27T04:52:10.945Z,5.72
2019-04-27T04:54:43.461Z,8.03
2019-04-27T04:57:15.225Z,8.45
2019-04-27T04:59:51.048Z,7.90
2019-04-27T05:02:20.414Z,8.23
2019-04-27T05:04:52.209Z,8.43
2019-04-27T05:07:23.981Z,8.53
2019-04-27T05:09:55.881Z,8.60
2019-04-27T05:12:28.784Z,8.58
2019-04-27T05:15:01.863Z,6.72
2019-04-27T05:17:33.890Z,7.47
2019-04-27T05:20:26.264Z,7.40
2019-04-27T05:22:56.986Z,7.87
2019-04-27T05:25:28.793Z,7.35
2019-04-27T05:28:00.637Z,6.42
2019-04-27T05:30:32.411Z,7.35
2019-04-27T05:33:04.321Z,8.10
2019-04-27T05:35:36.096Z,7.28
2019-04-27T05:38:11.046Z,7.65
2019-04-27T05:40:41.398Z,8.00
2019-04-27T05:43:14.859Z,8.00
2019-04-27T05:46:51.175Z,6.62
2019-04-27T05:49:29.471Z,6.60
2019-04-27T05:52:01.380Z,7.53
2019-04-27T05:54:33.263Z,10.13
2019-04-27T05:57:05.063Z,8.50
2019-04-27T05:59:36.836Z,12.33
2019-04-27T06:02:09.336Z,10.93
2019-04-27T06:04:41.489Z,13.20
2019-04-27T06:07:14.547Z,13.43
2019-04-27T06:09:46.338Z,10.95
2019-04-27T06:12:19.056Z,14.33
2019-04-27T06:14:51.380Z,12.60
2019-04-27T06:17:23.196Z,11.25
2019-04-27T06:19:55.000Z,13.50
2019-04-27T06:22:26.799Z,15.58
2019-04-27T06:25:00.086Z,16.85
2019-04-27T06:27:32.140Z,12.88
2019-04-27T06:30:04.960Z,17.35
2019-04-27T06:32:37.036Z,13.20
2019-04-27T06:35:12.242Z,13.90
2019-04-27T06:37:43.224Z,10.58
2019-04-27T06:40:15.291Z,10.30
2019-04-27T06:42:48.607Z,12.75
2019-04-27T06:45:20.775Z,14.70
2019-04-27T06:47:52.560Z,19.40
2019-04-27T06:50:24.944Z,14.28
2019-04-27T06:52:58.839Z,17.30
2019-04-27T06:55:30.583Z,16.55
2019-04-27T06:58:02.378Z,17.02
2019-04-27T07:00:34.264Z,16.67
2019-04-27T07:03:06.248Z,19.02
2019-04-27T07:05:38.817Z,18.45
2019-04-27T07:08:11.121Z,20.02
2019-04-27T07:10:42.920Z,17.77
2019-04-27T07:13:14.738Z,16.65
2019-04-27T07:15:48.499Z,19.30
2019-04-27T07:18:20.592Z,20.32
2019-04-27T07:20:52.374Z,18.20
2019-04-27T07:23:24.565Z,19.05
2019-04-27T07:25:56.471Z,17.70
2019-04-27T07:28:28.709Z,16.93
2019-04-27T07:31:00.484Z,16.82
2019-04-27T07:33:32.339Z,19.23
2019-04-27T07:36:04.126Z,18.02
2019-04-27T07:38:36.145Z,18.73
2019-04-27T07:41:09.575Z,20.35
2019-04-27T07:43:47.330Z,14.55
2019-04-27T07:46:19.129Z,17.85
2019-04-27T07:48:51.016Z,19.23
2019-04-27T07:51:31.605Z,14.55
2019-04-27T07:53:58.879Z,17.52
2019-04-27T07:56:30.827Z,17.67
2019-04-27T07:59:02.597Z,18.85
2019-04-27T08:01:34.478Z,13.32
2019-04-27T08:04:06.356Z,18.12
2019-04-27T08:06:38.876Z,14.15
2019-04-27T08:09:11.168Z,17.20
2019-04-27T08:11:43.280Z,17.23
2019-04-27T08:14:15.231Z,12.78
2019-04-27T08:16:48.693Z,15.80
2019-04-27T08:19:20.918Z,18.65
2019-04-27T08:21:52.732Z,16.17
2019-04-27T08:24:24.736Z,16.73
2019-04-27T08:27:05.712Z,19.57
2019-04-27T08:29:59.390Z,19.12
2019-04-27T08:32:36.282Z,15.68
2019-04-27T08:35:09.537Z,18.75
2019-04-27T08:37:41.713Z,13.98
2019-04-27T08:40:14.456Z,19.40
2019-04-27T08:42:46.301Z,17.27
2019-04-27T08:45:19.296Z,18.52
2019-04-27T08:47:51.487Z,17.05
2019-04-27T08:50:23.338Z,15.63
2019-04-27T08:52:55.135Z,18.82
2019-04-27T08:55:27.053Z,17.30
2019-04-27T08:57:58.860Z,15.53
2019-04-27T09:00:30.685Z,16.87
2019-04-27T09:03:02.520Z,15.93
2019-04-27T09:05:34.308Z,17.73
2019-04-27T09:08:22.608Z,15.28
2019-04-27T09:11:20.582Z,15.00
2019-04-27T09:14:11.627Z,18.15
2019-04-27T09:17:00.028Z,17.67
2019-04-27T09:19:46.911Z,18.48
2019-04-27T09:22:19.293Z,18.98
2019-04-27T09:24:52.414Z,15.58
2019-04-27T09:27:24.549Z,14.73
2019-04-27T09:29:56.378Z,17.60
2019-04-27T09:32:28.947Z,14.30
2019-04-27T09:35:00.977Z,17.55
2019-04-27T09:37:32.840Z,18.12
2019-04-27T09:40:06.293Z,16.52
2019-04-27T09:42:38.594Z,16.48
2019-04-27T09:45:10.881Z,14.90
2019-04-27T09:47:42.722Z,17.57
2019-04-27T09:50:16.207Z,13.03
2019-04-27T09:52:48.508Z,13.90
2019-04-27T09:55:20.389Z,15.30
2019-04-27T09:57:52.652Z,13.50
2019-04-27T10:00:27.616Z,19.70
2019-04-27T10:03:00.025Z,14.83
2019-04-27T10:05:31.849Z,14.13
2019-04-27T10:08:03.703Z,14.60
2019-04-27T10:10:37.194Z,14.30
2019-04-27T10:13:09.531Z,15.60
2019-04-27T10:15:41.398Z,16.67
2019-04-27T10:18:13.247Z,16.67
2019-04-27T10:20:56.898Z,14.85
2019-04-27T10:23:18.621Z,13.68
2019-04-27T10:25:50.427Z,15.43
2019-04-27T10:28:22.660Z,14.33
2019-04-27T10:30:55.749Z,16.48
2019-04-27T10:33:29.105Z,16.70
2019-04-27T10:36:00.908Z,11.83
2019-04-27T10:38:32.842Z,16.95
2019-04-27T10:41:05.680Z,14.07
2019-04-27T10:43:38.635Z,14.53
2019-04-27T10:46:10.478Z,13.43
2019-04-27T10:48:42.666Z,12.28
2019-04-27T10:51:16.040Z,15.98
2019-04-27T10:53:48.088Z,13.85
2019-04-27T10:56:20.023Z,13.40
2019-04-27T10:58:52.149Z,13.50
2019-04-27T11:01:25.680Z,9.93
2019-04-27T11:04:36.004Z,11.35
2019-04-27T11:07:10.591Z,14.70
2019-04-27T11:09:42.396Z,15.23
2019-04-27T11:12:15.810Z,14.90
2019-04-27T11:14:47.875Z,13.05
2019-04-27T11:17:19.655Z,12.80
2019-04-27T11:19:51.832Z,14.03
2019-04-27T11:22:23.699Z,14.85
2019-04-27T11:24:56.359Z,10.38
2019-04-27T11:27:28.452Z,14.15
2019-04-27T11:30:00.634Z,11.30
2019-04-27T11:32:32.468Z,14.98
2019-04-27T11:35:12.374Z,13.75
2019-04-27T11:37:45.613Z,16.25
2019-04-27T11:40:20.356Z,14.93
2019-04-27T11:42:52.210Z,14.07
2019-04-27T11:45:24.340Z,15.88
2019-04-27T11:47:57.101Z,13.80
2019-04-27T11:50:29.243Z,14.65
2019-04-27T11:53:01.200Z,10.18
2019-04-27T11:55:34.458Z,14.65
2019-04-27T11:58:06.633Z,13.43
2019-04-27T12:00:38.553Z,14.38
2019-04-27T12:03:10.456Z,14.25
2019-04-27T12:05:42.261Z,13.60
2019-04-27T12:08:16.079Z,12.70
2019-04-27T12:10:48.397Z,12.93
2019-04-27T12:13:20.461Z,11.73
2019-04-27T12:15:52.687Z,15.08
2019-04-27T12:18:24.521Z,14.33
2019-04-27T12:20:56.874Z,13.53
2019-04-27T12:23:35.589Z,15.38
2019-04-27T12:26:02.483Z,16.12
2019-04-27T12:28:43.206Z,12.65
2019-04-27T12:31:22.697Z,13.55
2019-04-27T12:33:56.017Z,13.75
2019-04-27T12:36:28.168Z,8.08
2019-04-27T12:39:00.029Z,12.95
2019-04-27T12:41:31.907Z,11.55
2019-04-27T12:44:03.938Z,16.32
2019-04-27T12:46:36.353Z,10.63
2019-04-27T12:49:10.141Z,12.13
2019-04-27T12:51:42.140Z,10.32
2019-04-27T12:54:36.294Z,13.60
2019-04-27T12:57:30.952Z,11.50
2019-04-27T13:00:12.291Z,14.75
2019-04-27T13:02:44.518Z,13.28
2019-04-27T13:05:16.724Z,12.28
2019-04-27T13:07:48.573Z,14.05
2019-04-27T13:10:20.809Z,11.03
2019-04-27T13:12:53.003Z,13.10
2019-04-27T13:15:26.497Z,11.80
2019-04-27T13:17:58.571Z,15.20
2019-04-27T13:20:30.386Z,12.18
2019-04-27T13:23:02.459Z,13.75
2019-04-27T13:25:34.396Z,14.30
2019-04-27T13:28:06.507Z,15.08
2019-04-27T13:30:38.320Z,15.72
2019-04-27T13:33:10.628Z,12.90
2019-04-27T13:35:42.497Z,17.75
2019-04-27T13:38:16.119Z,15.50
2019-04-27T13:41:05.970Z,16.42
2019-04-27T13:43:39.669Z,14.43
2019-04-27T13:46:26.655Z,14.15
2019-04-27T13:49:17.886Z,16.00
2019-04-27T13:52:06.133Z,18.67
2019-04-27T13:54:38.374Z,15.48
2019-04-27T13:57:10.247Z,17.65
2019-04-27T13:59:42.285Z,18.67
2019-04-27T14:02:15.927Z,18.90
2019-04-27T14:04:47.764Z,21.30
2019-04-27T14:07:19.546Z,18.23
2019-04-27T14:09:51.463Z,21.25
2019-04-27T14:12:23.248Z,18.57
2019-04-27T14:14:55.010Z,17.98
2019-04-27T14:17:26.811Z,20.25
2019-04-27T14:19:59.513Z,20.02
2019-04-27T14:22:31.718Z,16.77
2019-04-27T14:25:03.816Z,12.23
2019-04-27T14:27:41.798Z,17.42
2019-04-27T14:30:16.776Z,13.95
2019-04-27T14:32:48.638Z,14.07
2019-04-27T14:35:20.469Z,14.25
2019-04-27T14:37:52.296Z,20.57
2019-04-27T14:40:24.150Z,16.87
2019-04-27T14:42:55.988Z,16.35
2019-04-27T14:45:28.625Z,15.03
2019-04-27T14:48:00.512Z,14.55
2019-04-27T14:50:32.690Z,13.95
2019-04-27T14:53:05.555Z,13.83
2019-04-27T14:55:38.806Z,15.28
2019-04-27T14:58:10.973Z,15.83
2019-04-27T15:00:42.895Z,12.80
2019-04-27T15:03:14.732Z,15.23
2019-04-27T15:05:49.811Z,15.60
2019-04-27T15:08:21.355Z,10.40
2019-04-27T15:10:53.939Z,16.52
2019-04-27T15:13:26.373Z,13.80
2019-04-27T15:16:02.681Z,16.52
2019-04-27T15:18:39.909Z,17.25
2019-04-27T15:21:10.457Z,16.45
2019-04-27T15:23:42.456Z,15.40
2019-04-27T15:26:15.485Z,16.12
2019-04-27T15:28:51.123Z,14.98
2019-04-27T15:31:55.938Z,15.40
2019-04-27T15:34:58.804Z,12.63
2019-04-27T15:37:35.762Z,12.73
2019-04-27T15:40:32.065Z,11.95
2019-04-27T15:43:22.955Z,15.75
2019-04-27T15:45:57.670Z,13.35
2019-04-27T15:48:30.415Z,15.48
2019-04-27T15:51:05.018Z,16.48
2019-04-27T15:53:38.621Z,12.23
2019-04-27T15:56:09.604Z,16.60
2019-04-27T15:58:41.369Z,15.80
2019-04-27T16:01:13.401Z,16.48
2019-04-27T16:03:45.292Z,11.77
2019-04-27T16:06:18.702Z,16.10
2019-04-27T16:08:50.991Z,15.77
2019-04-27T16:11:22.799Z,17.27
2019-04-27T16:13:54.700Z,15.27
2019-04-27T16:16:29.145Z,13.37
2019-04-27T16:19:03.575Z,19.23
2019-04-27T16:21:33.997Z,17.53
2019-04-27T16:24:06.082Z,18.20
2019-04-27T16:26:38.747Z,17.00
2019-04-27T16:29:11.600Z,14.53
2019-04-27T16:31:43.514Z,16.73
2019-04-27T16:34:15.399Z,15.47
2019-04-27T16:36:47.449Z,12.83
2019-04-27T16:39:20.452Z,17.03
2019-04-27T16:41:52.473Z,16.20
2019-04-27T16:44:24.409Z,13.13
2019-04-27T16:46:58.170Z,15.93
2019-04-27T16:49:29.948Z,16.67
2019-04-27T16:52:02.529Z,16.32
2019-04-27T16:54:34.342Z,13.95
2019-04-27T16:57:07.946Z,17.80
2019-04-27T16:59:46.013Z,22.13
2019-04-27T17:02:17.374Z,20.73
2019-04-27T17:04:52.856Z,27.42
2019-04-27T17:07:21.015Z,24.72
2019-04-27T17:09:52.835Z,20.77
2019-04-27T17:12:29.900Z,21.63
2019-04-27T17:15:15.989Z,21.90
2019-04-27T17:17:54.221Z,21.93
2019-04-27T17:20:26.089Z,19.30
2019-04-27T17:22:58.338Z,30.43
2019-04-27T17:25:38.945Z,26.05
2019-04-27T17:28:07.915Z,17.97
2019-04-27T17:30:41.893Z,18.05
2019-04-27T17:33:38.596Z,17.05
2019-04-27T17:36:12.088Z,15.25
2019-04-27T17:38:47.380Z,14.73
2019-04-27T17:41:18.402Z,19.90
2019-04-27T17:43:50.749Z,20.60
2019-04-27T17:46:22.553Z,18.97
2019-04-27T17:48:54.402Z,17.52
2019-04-27T17:51:30.559Z,23.98
2019-04-27T17:54:03.006Z,19.13
2019-04-27T17:56:36.197Z,16.77
2019-04-27T17:59:10.303Z,12.75
2019-04-27T18:01:40.957Z,23.67
2019-04-27T18:04:12.879Z,18.27
2019-04-27T18:06:44.850Z,13.80
2019-04-27T18:09:20.675Z,15.97
2019-04-27T18:11:54.385Z,12.98
2019-04-27T18:14:26.413Z,15.90
2019-04-27T18:16:58.505Z,17.40
2019-04-27T18:19:40.272Z,16.45
2019-04-27T18:22:13.431Z,17.32
2019-04-27T18:24:55.775Z,17.70
2019-04-27T18:27:45.909Z,17.35
2019-04-27T18:30:28.061Z,16.55
2019-04-27T18:33:02.046Z,17.30
2019-04-27T18:35:33.388Z,26.33
2019-04-27T18:38:05.764Z,31.10
2019-04-27T18:40:38.455Z,21.62
2019-04-27T18:43:13.154Z,21.63
2019-04-27T18:45:45.978Z,23.73
2019-04-27T18:48:24.641Z,18.40
2019-04-27T18:51:03.942Z,26.17
2019-04-27T18:53:35.920Z,17.97
2019-04-27T18:56:10.334Z,14.70
2019-04-27T18:58:41.550Z,18.97
2019-04-27T19:01:13.730Z,21.17
2019-04-27T19:03:47.533Z,19.37
2019-04-27T19:06:19.617Z,18.43
2019-04-27T19:08:51.684Z,16.17
2019-04-27T19:11:23.617Z,18.90
2019-04-27T19:13:55.863Z,16.93
2019-04-27T19:16:29.217Z,14.20
2019-04-27T19:19:01.681Z,23.83
2019-04-27T19:21:33.825Z,30.77
2019-04-27T19:24:06.385Z,23.10
2019-04-27T19:26:58.638Z,25.52
2019-04-27T19:29:58.904Z,18.83
2019-04-27T19:32:31.934Z,17.57
2019-04-27T19:35:04.320Z,17.53
2019-04-27T19:37:37.979Z,18.20
2019-04-27T19:40:10.394Z,18.73
2019-04-27T19:42:42.680Z,18.13
2019-04-27T19:45:14.606Z,20.83
2019-04-27T19:47:48.510Z,20.37
2019-04-27T19:50:20.160Z,18.10
2019-04-27T19:52:52.139Z,23.70
2019-04-27T19:55:24.342Z,49.83
2019-04-27T19:57:56.267Z,74.65
2019-04-27T20:00:53.568Z,56.03
2019-04-27T20:03:31.960Z,50.38
2019-04-27T20:06:04.317Z,26.12
2019-04-27T20:08:38.739Z,20.97
2019-04-27T20:11:10.791Z,19.50
2019-04-27T20:13:42.859Z,20.97
2019-04-27T20:16:14.778Z,21.10
2019-04-27T20:18:47.151Z,20.13
2019-04-27T20:21:20.980Z,15.47
2019-04-27T20:23:54.741Z,24.05
2019-04-27T20:26:27.355Z,36.13
2019-04-27T20:29:01.415Z,26.25
2019-04-27T20:31:34.544Z,17.03
2019-04-27T20:34:06.987Z,31.37
2019-04-27T20:36:39.300Z,21.17
2019-04-27T20:39:11.845Z,20.03
2019-04-27T20:41:43.822Z,19.07
2019-04-27T20:44:16.345Z,14.73
2019-04-27T20:46:48.469Z,22.23
2019-04-27T20:49:21.434Z,19.23
2019-04-27T20:52:06.156Z,14.20
2019-04-27T20:54:38.062Z,12.57
2019-04-27T20:57:11.540Z,13.55
2019-04-27T20:59:43.845Z,14.18
2019-04-27T21:02:36.552Z,13.50
2019-04-27T21:05:23.861Z,11.12
2019-04-27T21:07:59.231Z,12.77
2019-04-27T21:10:32.525Z,13.27
2019-04-27T21:13:05.678Z,14.07
2019-04-27T21:15:37.673Z,12.23
2019-04-27T21:18:11.326Z,9.87
2019-04-27T21:20:43.053Z,12.17
2019-04-27T21:23:15.165Z,12.03
2019-04-27T21:25:47.053Z,11.27
2019-04-27T21:28:19.202Z,12.70
2019-04-27T21:30:51.312Z,10.90
2019-04-27T21:33:23.122Z,12.53
2019-04-27T21:35:55.272Z,11.47
2019-04-27T21:38:27.061Z,11.17
2019-04-27T21:40:59.021Z,13.32
2019-04-27T21:43:32.670Z,13.17
2019-04-27T21:46:05.678Z,14.13
2019-04-27T21:48:37.474Z,13.93
2019-04-27T21:51:09.337Z,14.53
2019-04-27T21:53:58.611Z,16.63
2019-04-27T21:56:31.241Z,17.20
2019-04-27T21:59:03.509Z,12.80
2019-04-27T22:01:36.245Z,11.07
2019-04-27T22:04:11.270Z,12.63
2019-04-27T22:06:43.887Z,13.47
2019-04-27T22:09:16.862Z,14.23
2019-04-27T22:11:50.985Z,11.57
2019-04-27T22:14:23.082Z,14.27
2019-04-27T22:16:54.958Z,16.20
2019-04-27T22:19:27.082Z,17.10
2019-04-27T22:22:00.614Z,13.33
2019-04-27T22:24:36.293Z,15.23
2019-04-27T22:27:08.533Z,17.30
2019-04-27T22:29:40.351Z,17.83
2019-04-27T22:32:12.884Z,16.67
2019-04-27T22:34:44.687Z,15.73
2019-04-27T22:37:16.787Z,18.70
2019-04-27T22:40:10.241Z,17.77
2019-04-27T22:43:07.959Z,13.30
2019-04-27T22:45:42.333Z,13.20
2019-04-27T22:48:14.471Z,10.63
2019-04-27T22:50:46.298Z,12.50
2019-04-27T22:53:18.096Z,10.33
2019-04-27T22:56:07.557Z,11.77
2019-04-27T22:58:42.515Z,11.27
2019-04-27T23:01:34.417Z,10.77
2019-04-27T23:04:06.838Z,11.87
2019-04-27T23:06:38.804Z,11.67
2019-04-27T23:09:11.776Z,12.50
2019-04-27T23:11:43.749Z,12.00
2019-04-27T23:14:16.501Z,11.80
2019-04-27T23:16:50.323Z,9.50
2019-04-27T23:19:22.375Z,12.43
2019-04-27T23:21:54.125Z,10.57
2019-04-27T23:24:25.951Z,11.20
2019-04-27T23:26:57.761Z,10.87
2019-04-27T23:29:30.588Z,11.70
2019-04-27T23:32:15.949Z,10.80
2019-04-27T23:34:47.766Z,11.30
2019-04-27T23:37:19.619Z,11.17
2019-04-27T23:39:51.385Z,11.80
2019-04-27T23:42:23.182Z,12.23
2019-04-27T23:44:54.969Z,11.13
2019-04-27T23:47:27.497Z,11.23
2019-04-27T23:50:00.851Z,11.10
2019-04-27T23:53:08.217Z,11.10
2019-04-27T23:55:41.973Z,11.43
2019-04-27T23:58:13.852Z,10.53
